createdAt,value
2018-11-28T00:01:33.223Z,32.60
2018-11-28T00:03:59.262Z,31.70
2018-11-28T00:06:25.251Z,32.90
2018-11-28T00:08:51.271Z,31.90
2018-11-28T00:11:18.020Z,34.17
2018-11-28T00:13:44.754Z,33.10
2018-11-28T00:16:11.519Z,31.37
2018-11-28T00:18:37.526Z,32.17
2018-11-28T00:21:03.548Z,27.80
2018-11-28T00:23:30.289Z,33.90
2018-11-28T00:25:58.946Z,28.57
2018-11-28T00:28:23.067Z,36.77
2018-11-28T00:30:49.075Z,32.63
2018-11-28T00:33:15.823Z,33.90
2018-11-28T00:35:42.607Z,33.87
2018-11-28T00:38:08.632Z,37.40
2018-11-28T00:40:34.637Z,32.67
2018-11-28T00:43:00.620Z,30.53
2018-11-28T00:45:27.411Z,37.63
2018-11-28T00:47:53.416Z,36.63
2018-11-28T00:50:19.414Z,33.23
2018-11-28T00:52:52.549Z,40.10
2018-11-28T00:55:18.546Z,36.13
2018-11-28T00:57:44.550Z,38.87
2018-11-28T01:00:11.347Z,34.27
2018-11-28T01:02:37.373Z,39.57
2018-11-28T01:05:03.378Z,36.93
2018-11-28T01:07:29.382Z,34.37
2018-11-28T01:09:56.121Z,34.70
2018-11-28T01:12:22.160Z,39.50
2018-11-28T01:14:48.189Z,36.53
2018-11-28T01:17:14.195Z,36.37
2018-11-28T01:19:40.223Z,36.93
2018-11-28T01:22:06.980Z,34.03
2018-11-28T01:24:32.982Z,37.63
2018-11-28T01:26:59.736Z,32.10
2018-11-28T01:29:25.754Z,35.17
2018-11-28T01:31:51.765Z,31.40
2018-11-28T01:34:18.502Z,35.20
2018-11-28T01:36:44.527Z,35.23
2018-11-28T01:39:11.247Z,36.23
2018-11-28T01:41:37.247Z,36.47
2018-11-28T01:44:03.281Z,39.23
2018-11-28T01:46:29.291Z,39.88
2018-11-28T01:48:55.322Z,35.75
2018-11-28T01:51:21.315Z,39.10
2018-11-28T01:53:47.323Z,37.30
2018-11-28T01:56:13.353Z,32.65
2018-11-28T01:58:46.473Z,39.13
2018-11-28T02:01:12.543Z,35.15
2018-11-28T02:03:38.586Z,36.33
2018-11-28T02:06:04.610Z,40.08
2018-11-28T02:08:30.654Z,33.87
2018-11-28T02:10:56.732Z,39.08
2018-11-28T02:13:23.503Z,37.30
2018-11-28T02:15:49.508Z,33.72
2018-11-28T02:18:15.565Z,36.00
2018-11-28T02:20:41.576Z,38.80
2018-11-28T02:23:07.591Z,37.30
2018-11-28T02:25:33.611Z,33.17
2018-11-28T02:28:00.364Z,34.47
2018-11-28T02:30:26.397Z,31.98
2018-11-28T02:32:52.409Z,40.15
2018-11-28T02:35:18.478Z,37.72
2018-11-28T02:37:44.498Z,29.65
2018-11-28T02:40:10.500Z,30.48
2018-11-28T02:42:36.503Z,36.17
2018-11-28T02:45:03.258Z,36.03
2018-11-28T02:47:29.327Z,34.08
2018-11-28T02:49:55.322Z,32.40
2018-11-28T02:52:21.349Z,38.85
2018-11-28T02:54:47.349Z,33.38
2018-11-28T02:57:13.366Z,37.40
2018-11-28T02:59:39.377Z,49.90
2018-11-28T03:02:06.137Z,32.65
2018-11-28T03:04:32.229Z,38.83
2018-11-28T03:06:58.246Z,42.53
2018-11-28T03:09:24.255Z,34.35
2018-11-28T03:11:50.261Z,42.47
2018-11-28T03:14:16.307Z,38.33
2018-11-28T03:16:42.309Z,39.50
2018-11-28T03:19:08.303Z,36.25
2018-11-28T03:21:34.331Z,36.67
2018-11-28T03:24:00.365Z,38.00
2018-11-28T03:26:26.377Z,36.83
2018-11-28T03:28:52.401Z,34.83
2018-11-28T03:31:18.388Z,37.75
2018-11-28T03:33:44.396Z,33.33
2018-11-28T03:36:10.427Z,36.40
2018-11-28T03:38:36.431Z,31.87
2018-11-28T03:41:02.437Z,38.45
2018-11-28T03:43:28.427Z,40.33
2018-11-28T03:45:54.460Z,38.03
2018-11-28T03:48:20.473Z,32.53
2018-11-28T03:50:46.482Z,35.25
2018-11-28T03:53:13.234Z,41.42
2018-11-28T03:55:39.990Z,33.92
2018-11-28T03:58:06.003Z,38.78
2018-11-28T04:00:32.027Z,33.38
2018-11-28T04:02:58.775Z,32.67
2018-11-28T04:05:24.768Z,35.67
2018-11-28T04:07:50.808Z,35.13
2018-11-28T04:10:17.530Z,32.00
2018-11-28T04:12:43.554Z,33.80
2018-11-28T04:15:09.536Z,32.42
2018-11-28T04:17:35.538Z,33.07
2018-11-28T04:20:01.600Z,32.30
2018-11-28T04:22:27.579Z,35.42
2018-11-28T04:24:53.582Z,31.92
2018-11-28T04:27:19.597Z,32.80
2018-11-28T04:29:45.598Z,30.20
2018-11-28T04:32:11.630Z,38.45
2018-11-28T04:34:37.646Z,40.33
2018-11-28T04:37:03.694Z,34.60
2018-11-28T04:39:29.726Z,34.55
2018-11-28T04:41:55.705Z,41.15
2018-11-28T04:44:21.706Z,32.60
2018-11-28T04:46:47.718Z,26.58
2018-11-28T04:49:13.714Z,32.00
2018-11-28T04:51:39.719Z,30.50
2018-11-28T04:54:05.707Z,33.25
2018-11-28T04:56:31.711Z,36.17
2018-11-28T04:58:57.711Z,34.33
2018-11-28T05:01:23.708Z,35.83
2018-11-28T05:03:49.682Z,32.50
2018-11-28T05:06:16.424Z,34.20
2018-11-28T05:08:42.434Z,35.80
2018-11-28T05:11:09.206Z,31.97
2018-11-28T05:13:35.288Z,30.83
2018-11-28T05:16:01.283Z,33.55
2018-11-28T05:18:27.381Z,38.70
2018-11-28T05:20:53.341Z,36.30
2018-11-28T05:23:19.341Z,33.37
2018-11-28T05:25:45.334Z,35.37
2018-11-28T05:28:11.357Z,33.58
2018-11-28T05:30:37.343Z,35.72
2018-11-28T05:33:03.338Z,35.57
2018-11-28T05:35:29.325Z,28.40
2018-11-28T05:37:55.349Z,29.55
2018-11-28T05:40:21.342Z,36.78
2018-11-28T05:42:47.345Z,44.30
2018-11-28T05:45:13.407Z,34.50
2018-11-28T05:47:39.399Z,36.42
2018-11-28T05:50:05.374Z,30.93
2018-11-28T05:52:31.378Z,37.00
2018-11-28T05:55:07.357Z,30.20
2018-11-28T05:57:33.355Z,34.93
2018-11-28T06:00:00.086Z,34.13
2018-11-28T06:02:26.853Z,39.85
2018-11-28T06:04:52.842Z,30.62
2018-11-28T06:07:18.845Z,40.87
2018-11-28T06:09:44.851Z,40.00
2018-11-28T06:12:10.842Z,35.55
2018-11-28T06:14:37.630Z,36.50
2018-11-28T06:17:03.618Z,41.25
2018-11-28T06:19:29.656Z,38.43
2018-11-28T06:21:55.684Z,35.15
2018-11-28T06:24:21.783Z,33.50
2018-11-28T06:26:47.835Z,34.50
2018-11-28T06:29:13.862Z,37.65
2018-11-28T06:31:39.864Z,39.08
2018-11-28T06:34:05.887Z,32.88
2018-11-28T06:36:31.891Z,39.17
2018-11-28T06:38:58.628Z,33.63
2018-11-28T06:41:25.355Z,40.92
2018-11-28T06:43:51.344Z,31.10
2018-11-28T06:46:17.370Z,40.70
2018-11-28T06:48:43.375Z,46.28
2018-11-28T06:51:09.382Z,44.70
2018-11-28T06:53:35.365Z,46.15
2018-11-28T06:56:01.377Z,41.93
2018-11-28T06:58:27.405Z,41.60
2018-11-28T07:00:53.392Z,33.22
2018-11-28T07:03:19.417Z,34.50
2018-11-28T07:05:45.442Z,38.67
2018-11-28T07:08:11.452Z,39.80
2018-11-28T07:10:37.457Z,41.17
2018-11-28T07:13:03.466Z,36.85
2018-11-28T07:15:30.219Z,36.65
2018-11-28T07:17:56.242Z,35.47
2018-11-28T07:20:22.961Z,42.35
2018-11-28T07:22:48.955Z,40.28
2018-11-28T07:25:14.950Z,35.23
2018-11-28T07:27:45.125Z,34.80
2018-11-28T07:30:06.985Z,43.47
2018-11-28T07:32:32.990Z,36.92
2018-11-28T07:34:58.974Z,39.80
2018-11-28T07:37:24.974Z,37.87
2018-11-28T07:39:50.983Z,36.57
2018-11-28T07:42:17.003Z,36.97
2018-11-28T07:44:43.004Z,33.80
2018-11-28T07:47:08.983Z,38.00
2018-11-28T07:49:34.970Z,36.67
2018-11-28T07:52:00.983Z,38.40
2018-11-28T07:54:27.742Z,33.35
2018-11-28T07:56:53.797Z,35.58
2018-11-28T07:59:19.729Z,35.00
2018-11-28T08:01:45.714Z,39.90
2018-11-28T08:04:11.718Z,37.20
2018-11-28T08:06:37.687Z,38.50
2018-11-28T08:09:03.715Z,35.70
2018-11-28T08:11:29.717Z,38.50
2018-11-28T08:13:55.713Z,41.97
2018-11-28T08:16:21.738Z,50.63
2018-11-28T08:18:47.735Z,36.23
2018-11-28T08:21:13.757Z,36.13
2018-11-28T08:23:39.764Z,46.10
2018-11-28T08:26:05.746Z,44.83
2018-11-28T08:28:31.749Z,38.93
2018-11-28T08:30:57.765Z,41.97
2018-11-28T08:33:24.537Z,38.20
2018-11-28T08:35:50.536Z,37.27
2018-11-28T08:38:16.516Z,43.00
2018-11-28T08:40:42.522Z,39.07
2018-11-28T08:43:08.518Z,42.55
2018-11-28T08:45:34.535Z,41.37
2018-11-28T08:48:00.523Z,44.95
2018-11-28T08:50:26.529Z,46.10
2018-11-28T08:52:52.530Z,41.78
2018-11-28T08:55:18.523Z,37.90
2018-11-28T08:57:44.516Z,46.43
2018-11-28T09:00:10.513Z,39.70
2018-11-28T09:02:36.502Z,41.47
2018-11-28T09:05:02.494Z,43.80
2018-11-28T09:07:28.508Z,40.23
2018-11-28T09:09:54.512Z,39.03
2018-11-28T09:12:20.499Z,42.40
2018-11-28T09:14:46.530Z,46.90
2018-11-28T09:17:15.134Z,39.00
2018-11-28T09:19:38.563Z,40.27
2018-11-28T09:22:04.560Z,39.43
2018-11-28T09:24:30.552Z,35.93
2018-11-28T09:26:56.559Z,52.07
2018-11-28T09:29:22.542Z,41.17
2018-11-28T09:31:48.544Z,38.33
2018-11-28T09:34:14.534Z,41.03
2018-11-28T09:36:40.575Z,40.97
2018-11-28T09:39:06.562Z,45.20
2018-11-28T09:41:32.570Z,35.87
2018-11-28T09:43:59.335Z,35.80
2018-11-28T09:46:25.325Z,38.23
2018-11-28T09:48:51.348Z,35.07
2018-11-28T09:51:17.350Z,46.67
2018-11-28T09:53:43.338Z,42.47
2018-11-28T09:56:09.369Z,35.30
2018-11-28T09:58:36.068Z,34.17
2018-11-28T10:01:02.803Z,40.10
2018-11-28T10:03:29.547Z,41.83
2018-11-28T10:05:55.559Z,40.00
2018-11-28T10:08:21.640Z,38.37
2018-11-28T10:10:47.778Z,36.37
2018-11-28T10:13:13.818Z,35.97
2018-11-28T10:15:39.799Z,40.90
2018-11-28T10:18:05.779Z,36.10
2018-11-28T10:20:31.771Z,39.83
2018-11-28T10:22:57.767Z,37.03
2018-11-28T10:25:23.791Z,40.47
2018-11-28T10:27:49.775Z,36.77
2018-11-28T10:30:15.771Z,40.20
2018-11-28T10:32:41.773Z,40.70
2018-11-28T10:35:07.799Z,35.47
2018-11-28T10:37:33.818Z,34.77
2018-11-28T10:39:59.842Z,38.43
2018-11-28T10:42:25.924Z,34.33
2018-11-28T10:44:52.001Z,30.13
2018-11-28T10:47:18.040Z,33.87
2018-11-28T10:49:44.048Z,36.80
2018-11-28T10:52:10.064Z,36.80
2018-11-28T10:54:36.082Z,35.50
2018-11-28T10:57:02.108Z,35.60
2018-11-28T10:59:35.123Z,36.53
2018-11-28T11:02:01.147Z,41.83
2018-11-28T11:04:27.173Z,36.23
2018-11-28T11:07:08.141Z,34.60
2018-11-28T11:09:49.902Z,29.17
2018-11-28T11:12:15.926Z,34.17
2018-11-28T11:14:41.939Z,31.33
2018-11-28T11:17:07.939Z,34.17
2018-11-28T11:19:33.947Z,34.40
2018-11-28T11:21:59.967Z,34.10
2018-11-28T11:24:26.718Z,34.90
2018-11-28T11:26:52.758Z,31.70
2018-11-28T11:29:18.756Z,35.07
2018-11-28T11:31:44.789Z,37.20
2018-11-28T11:34:10.800Z,32.57
2018-11-28T11:36:36.839Z,35.37
2018-11-28T11:39:02.833Z,31.40
2018-11-28T11:41:28.809Z,30.50
2018-11-28T11:43:55.567Z,30.83
2018-11-28T11:46:21.619Z,33.23
2018-11-28T11:48:47.651Z,32.53
2018-11-28T11:51:13.727Z,32.10
2018-11-28T11:53:39.758Z,29.07
2018-11-28T11:56:05.782Z,27.83
2018-11-28T11:58:31.826Z,29.70
2018-11-28T12:00:57.861Z,32.77
2018-11-28T12:03:23.875Z,29.77
2018-11-28T12:05:49.909Z,32.40
2018-11-28T12:08:15.995Z,27.57
2018-11-28T12:10:42.026Z,31.33
2018-11-28T12:13:08.230Z,27.13
2018-11-28T12:15:34.091Z,27.70
2018-11-28T12:18:00.119Z,30.27
2018-11-28T12:20:33.098Z,32.23
2018-11-28T12:22:59.150Z,30.80
2018-11-28T12:25:25.150Z,27.93
2018-11-28T12:27:51.174Z,31.17
2018-11-28T12:30:17.275Z,25.27
2018-11-28T12:32:43.458Z,27.27
2018-11-28T12:35:09.475Z,27.27
2018-11-28T12:37:35.544Z,29.87
2018-11-28T12:40:01.588Z,28.70
2018-11-28T12:42:27.728Z,26.77
2018-11-28T12:44:53.753Z,26.60
2018-11-28T12:47:19.823Z,26.10
2018-11-28T12:49:45.873Z,26.20
2018-11-28T12:52:11.877Z,24.13
2018-11-28T12:54:37.914Z,27.83
2018-11-28T12:57:04.651Z,29.43
2018-11-28T12:59:30.753Z,22.53
2018-11-28T13:01:56.792Z,29.30
2018-11-28T13:04:22.836Z,26.07
2018-11-28T13:06:48.886Z,26.67
2018-11-28T13:09:14.961Z,22.93
2018-11-28T13:11:41.000Z,26.27
2018-11-28T13:14:08.176Z,24.03
2018-11-28T13:16:34.525Z,25.20
2018-11-28T13:19:00.624Z,27.53
2018-11-28T13:21:26.674Z,25.67
2018-11-28T13:23:53.029Z,25.43
2018-11-28T13:26:19.126Z,26.17
2018-11-28T13:28:45.217Z,28.40
2018-11-28T13:31:12.041Z,24.20
2018-11-28T13:33:39.127Z,24.90
2018-11-28T13:36:05.357Z,26.97
2018-11-28T13:38:31.388Z,26.33
2018-11-28T13:40:57.477Z,25.20
2018-11-28T13:43:23.495Z,23.30
2018-11-28T13:45:49.510Z,23.50
2018-11-28T13:48:15.503Z,23.83
2018-11-28T13:50:41.525Z,28.07
2018-11-28T13:53:07.588Z,27.53
2018-11-28T13:55:38.445Z,23.30
2018-11-28T13:57:59.925Z,27.40
2018-11-28T14:00:25.944Z,23.37
2018-11-28T14:02:51.935Z,26.70
2018-11-28T14:05:18.191Z,30.27
2018-11-28T14:07:44.366Z,25.93
2018-11-28T14:10:10.689Z,22.73
2018-11-28T14:12:36.740Z,26.40
2018-11-28T14:15:02.855Z,28.67
2018-11-28T14:17:28.889Z,22.80
2018-11-28T14:19:54.989Z,24.93
2018-11-28T14:22:22.244Z,25.00
2018-11-28T14:24:49.506Z,25.93
2018-11-28T14:27:15.875Z,21.90
2018-11-28T14:29:41.891Z,28.03
2018-11-28T14:32:08.716Z,26.60
2018-11-28T14:34:34.783Z,24.37
2018-11-28T14:37:00.841Z,27.50
2018-11-28T14:39:27.590Z,29.63
2018-11-28T14:41:53.637Z,27.50
2018-11-28T14:44:19.628Z,26.30
2018-11-28T14:46:45.665Z,26.47
2018-11-28T14:49:11.723Z,25.03
2018-11-28T14:51:37.751Z,22.50
2018-11-28T14:54:03.801Z,23.73
2018-11-28T14:56:29.806Z,27.70
2018-11-28T14:58:55.811Z,28.17
2018-11-28T15:01:21.846Z,22.03
2018-11-28T15:03:47.845Z,23.73
2018-11-28T15:06:13.901Z,25.67
2018-11-28T15:08:39.957Z,20.63
2018-11-28T15:11:06.726Z,24.57
2018-11-28T15:13:32.745Z,24.37
2018-11-28T15:15:58.810Z,22.73
2018-11-28T15:18:24.836Z,24.80
2018-11-28T15:20:50.842Z,22.80
2018-11-28T15:23:16.839Z,26.10
2018-11-28T15:25:42.914Z,26.83
2018-11-28T15:28:18.942Z,21.03
2018-11-28T15:30:44.955Z,23.90
2018-11-28T15:33:10.975Z,24.73
2018-11-28T15:35:37.007Z,23.67
2018-11-28T15:38:03.039Z,25.97
2018-11-28T15:40:29.051Z,26.97
2018-11-28T15:42:55.081Z,27.97
2018-11-28T15:45:21.799Z,25.50
2018-11-28T15:47:47.815Z,23.90
2018-11-28T15:50:13.808Z,21.03
2018-11-28T15:52:39.851Z,21.30
2018-11-28T15:55:05.936Z,25.83
2018-11-28T15:57:31.992Z,24.20
2018-11-28T15:59:58.017Z,22.57
2018-11-28T16:02:24.137Z,24.53
2018-11-28T16:04:50.146Z,23.10
2018-11-28T16:07:16.217Z,21.63
2018-11-28T16:09:42.238Z,23.33
2018-11-28T16:12:08.311Z,25.17
2018-11-28T16:14:34.367Z,22.07
2018-11-28T16:17:00.382Z,29.27
2018-11-28T16:19:26.369Z,22.30
2018-11-28T16:21:52.390Z,23.93
2018-11-28T16:24:18.367Z,28.10
2018-11-28T16:26:44.387Z,25.30
2018-11-28T16:29:10.400Z,26.73
2018-11-28T16:31:36.361Z,24.47
2018-11-28T16:34:02.346Z,26.30
2018-11-28T16:36:28.339Z,23.57
2018-11-28T16:38:54.373Z,27.73
2018-11-28T16:41:20.401Z,26.40
2018-11-28T16:43:46.424Z,25.90
2018-11-28T16:46:12.439Z,26.10
2018-11-28T16:48:38.442Z,26.53
2018-11-28T16:51:04.529Z,30.20
2018-11-28T16:53:30.621Z,28.50
2018-11-28T16:55:56.635Z,24.00
2018-11-28T16:58:22.656Z,22.20
2018-11-28T17:00:48.666Z,24.87
2018-11-28T17:03:14.666Z,24.23
2018-11-28T17:05:40.672Z,26.30
2018-11-28T17:08:06.646Z,27.00
2018-11-28T17:10:32.655Z,23.33
2018-11-28T17:12:58.685Z,24.47
2018-11-28T17:15:24.702Z,28.20
2018-11-28T17:17:51.450Z,42.33
2018-11-28T17:20:17.479Z,32.53
2018-11-28T17:22:43.452Z,28.00
2018-11-28T17:25:09.441Z,25.23
2018-11-28T17:27:35.450Z,28.47
2018-11-28T17:30:01.465Z,24.87
2018-11-28T17:32:27.532Z,28.83
2018-11-28T17:34:53.548Z,29.27
2018-11-28T17:37:19.542Z,25.50
2018-11-28T17:39:45.590Z,29.57
2018-11-28T17:42:11.607Z,29.70
2018-11-28T17:44:37.597Z,26.73
2018-11-28T17:47:03.631Z,30.33
2018-11-28T17:49:29.619Z,26.60
2018-11-28T17:51:55.603Z,30.40
2018-11-28T17:54:21.586Z,24.97
2018-11-28T17:56:47.585Z,27.00
2018-11-28T17:59:13.573Z,27.07
2018-11-28T18:01:39.585Z,27.57
2018-11-28T18:04:05.590Z,26.03
2018-11-28T18:06:31.596Z,24.77
2018-11-28T18:08:57.594Z,28.30
2018-11-28T18:11:23.671Z,23.30
2018-11-28T18:13:49.689Z,24.30
2018-11-28T18:16:15.737Z,24.93
2018-11-28T18:18:41.756Z,24.53
2018-11-28T18:21:07.794Z,23.90
2018-11-28T18:23:33.771Z,24.70
2018-11-28T18:25:59.886Z,26.50
2018-11-28T18:28:25.878Z,24.60
2018-11-28T18:30:51.882Z,24.20
2018-11-28T18:33:17.895Z,25.60
2018-11-28T18:35:43.898Z,25.83
2018-11-28T18:38:10.661Z,24.30
2018-11-28T18:40:36.655Z,24.97
2018-11-28T18:43:02.652Z,24.80
2018-11-28T18:45:28.618Z,25.17
2018-11-28T18:47:54.626Z,26.87
2018-11-28T18:50:20.650Z,23.20
2018-11-28T18:52:46.679Z,26.83
2018-11-28T18:55:16.587Z,24.07
2018-11-28T18:57:38.715Z,26.90
2018-11-28T19:00:05.610Z,23.43
2018-11-28T19:02:31.600Z,24.57
2018-11-28T19:04:57.642Z,22.07
2018-11-28T19:07:23.746Z,22.37
2018-11-28T19:09:49.764Z,24.83
2018-11-28T19:12:16.510Z,21.97
2018-11-28T19:14:43.331Z,23.90
2018-11-28T19:17:09.283Z,22.53
2018-11-28T19:19:35.303Z,22.03
2018-11-28T19:22:01.415Z,21.57
2018-11-28T19:24:28.218Z,22.13
2018-11-28T19:26:54.334Z,24.80
2018-11-28T19:29:20.357Z,28.53
2018-11-28T19:31:46.351Z,25.27
2018-11-28T19:34:18.034Z,25.47
2018-11-28T19:36:38.540Z,22.10
2018-11-28T19:39:04.706Z,24.00
2018-11-28T19:41:30.767Z,25.57
2018-11-28T19:43:56.911Z,29.40
2018-11-28T19:46:22.959Z,30.07
2018-11-28T19:48:49.189Z,33.80
2018-11-28T19:51:15.390Z,29.80
2018-11-28T19:53:41.416Z,22.40
2018-11-28T19:56:07.446Z,22.87
2018-11-28T19:58:33.576Z,26.20
2018-11-28T20:00:59.754Z,21.67
2018-11-28T20:03:25.761Z,27.07
2018-11-28T20:05:51.755Z,26.60
2018-11-28T20:08:17.806Z,26.03
2018-11-28T20:10:43.815Z,29.17
2018-11-28T20:13:09.827Z,27.30
2018-11-28T20:15:35.846Z,28.37
2018-11-28T20:18:01.874Z,23.80
2018-11-28T20:20:28.137Z,25.47
2018-11-28T20:22:54.328Z,25.13
2018-11-28T20:25:20.463Z,27.40
2018-11-28T20:27:46.649Z,28.90
2018-11-28T20:30:12.747Z,26.60
2018-11-28T20:32:38.930Z,25.93
2018-11-28T20:35:05.029Z,30.03
2018-11-28T20:37:31.012Z,26.67
2018-11-28T20:39:57.021Z,26.57
2018-11-28T20:42:23.040Z,29.97
2018-11-28T20:44:49.154Z,26.80
2018-11-28T20:47:15.171Z,28.03
2018-11-28T20:49:41.267Z,31.10
2018-11-28T20:52:07.258Z,29.73
2018-11-28T20:54:33.285Z,29.50
2018-11-28T20:56:59.511Z,31.93
2018-11-28T20:59:25.627Z,27.87
2018-11-28T21:01:51.775Z,32.03
2018-11-28T21:04:17.892Z,26.70
2018-11-28T21:06:44.069Z,29.20
2018-11-28T21:09:10.159Z,30.23
2018-11-28T21:11:37.001Z,32.37
2018-11-28T21:14:03.122Z,35.20
2018-11-28T21:16:29.130Z,32.73
2018-11-28T21:18:55.154Z,34.23
2018-11-28T21:21:27.299Z,30.07
2018-11-28T21:23:48.090Z,34.43
2018-11-28T21:26:14.077Z,31.90
2018-11-28T21:28:40.833Z,31.90
2018-11-28T21:31:06.887Z,35.73
2018-11-28T21:33:32.913Z,32.33
2018-11-28T21:35:58.957Z,33.63
2018-11-28T21:38:25.762Z,29.57
2018-11-28T21:40:52.319Z,33.50
2018-11-28T21:43:18.373Z,37.53
2018-11-28T21:45:45.126Z,37.97
2018-11-28T21:48:11.205Z,32.67
2018-11-28T21:50:37.237Z,33.20
2018-11-28T21:53:04.010Z,29.80
2018-11-28T21:55:30.800Z,29.63
2018-11-28T21:57:56.842Z,36.33
2018-11-28T22:00:22.873Z,32.70
2018-11-28T22:02:48.874Z,33.00
2018-11-28T22:05:14.938Z,37.30
2018-11-28T22:07:40.953Z,36.40
2018-11-28T22:10:07.692Z,38.63
2018-11-28T22:12:33.701Z,40.17
2018-11-28T22:14:59.704Z,41.43
2018-11-28T22:17:25.735Z,37.03
2018-11-28T22:19:51.745Z,40.97
2018-11-28T22:22:17.832Z,35.97
2018-11-28T22:24:43.944Z,38.13
2018-11-28T22:27:10.712Z,41.43
2018-11-28T22:29:36.701Z,39.37
2018-11-28T22:32:02.710Z,35.47
2018-11-28T22:34:29.476Z,36.75
2018-11-28T22:36:55.579Z,35.70
2018-11-28T22:39:22.358Z,34.13
2018-11-28T22:41:48.375Z,31.80
2018-11-28T22:44:14.428Z,30.92
2018-11-28T22:46:40.439Z,40.50
2018-11-28T22:49:06.489Z,29.50
2018-11-28T22:51:32.526Z,31.17
2018-11-28T22:53:58.548Z,36.47
2018-11-28T22:56:24.563Z,33.97
2018-11-28T22:58:50.582Z,34.40
2018-11-28T23:01:16.606Z,40.37
2018-11-28T23:03:42.633Z,39.60
2018-11-28T23:06:08.639Z,35.77
2018-11-28T23:08:34.687Z,39.72
2018-11-28T23:11:00.751Z,41.78
2018-11-28T23:13:27.530Z,35.53
2018-11-28T23:15:53.573Z,34.83
2018-11-28T23:18:19.614Z,34.47
2018-11-28T23:20:45.646Z,38.30
2018-11-28T23:23:11.677Z,32.20
2018-11-28T23:25:37.698Z,35.37
2018-11-28T23:28:03.710Z,39.47
2018-11-28T23:30:29.768Z,35.40
2018-11-28T23:32:56.527Z,42.37
2018-11-28T23:35:22.587Z,39.10
2018-11-28T23:37:48.594Z,38.83
2018-11-28T23:40:14.592Z,39.23
2018-11-28T23:42:41.368Z,39.40
2018-11-28T23:45:07.384Z,43.78
2018-11-28T23:47:33.372Z,39.47
2018-11-28T23:50:00.115Z,41.30
2018-11-28T23:52:26.145Z,41.10
2018-11-28T23:54:52.277Z,40.55
2018-11-28T23:57:18.300Z,46.47
2018-11-28T23:59:44.317Z,45.12
